sensor_id;sensor_type;location;lat;lon;timestamp;P1;durP1;ratioP1;P2;durP2;ratioP2
18473;SDS011;30265;52.408;13.500;2023-07-08T00:00:18;11.57;;;7.45;;
18473;SDS011;30265;52.408;13.500;2023-07-08T00:10:45;10.35;;;7.20;;
18473;SDS011;30265;52.408;13.500;2023-07-08T00:21:08;12.65;;;7.53;;
18473;SDS011;30265;52.408;13.500;2023-07-08T00:31:36;12.20;;;8.07;;
18473;SDS011;30265;52.408;13.500;2023-07-08T00:41:58;12.75;;;7.75;;
18473;SDS011;30265;52.408;13.500;2023-07-08T00:52:24;13.52;;;8.00;;
18473;SDS011;30265;52.408;13.500;2023-07-08T01:02:49;13.48;;;7.78;;
18473;SDS011;30265;52.408;13.500;2023-07-08T01:13:16;13.82;;;7.88;;
18473;SDS011;30265;52.408;13.500;2023-07-08T01:23:41;14.50;;;8.53;;
18473;SDS011;30265;52.408;13.500;2023-07-08T01:34:03;12.40;;;7.60;;
18473;SDS011;30265;52.408;13.500;2023-07-08T01:44:30;12.48;;;7.47;;
18473;SDS011;30265;52.408;13.500;2023-07-08T01:54:54;12.02;;;7.70;;
18473;SDS011;30265;52.408;13.500;2023-07-08T02:05:18;12.75;;;7.40;;
18473;SDS011;30265;52.408;13.500;2023-07-08T02:15:40;10.68;;;6.93;;
18473;SDS011;30265;52.408;13.500;2023-07-08T02:26:03;13.30;;;7.50;;
18473;SDS011;30265;52.408;13.500;2023-07-08T02:36:25;12.32;;;7.78;;
18473;SDS011;30265;52.408;13.500;2023-07-08T02:46:50;11.70;;;7.00;;
18473;SDS011;30265;52.408;13.500;2023-07-08T02:57:12;9.30;;;6.55;;
18473;SDS011;30265;52.408;13.500;2023-07-08T03:07:35;11.43;;;6.40;;
18473;SDS011;30265;52.408;13.500;2023-07-08T03:17:57;10.02;;;6.60;;
18473;SDS011;30265;52.408;13.500;2023-07-08T03:28:21;9.75;;;6.68;;
18473;SDS011;30265;52.408;13.500;2023-07-08T03:38:45;9.70;;;6.73;;
18473;SDS011;30265;52.408;13.500;2023-07-08T03:49:09;9.85;;;6.65;;
18473;SDS011;30265;52.408;13.500;2023-07-08T03:59:31;8.52;;;6.80;;
18473;SDS011;30265;52.408;13.500;2023-07-08T04:09:54;6.75;;;5.50;;
18473;SDS011;30265;52.408;13.500;2023-07-08T04:20:16;10.10;;;5.70;;
18473;SDS011;30265;52.408;13.500;2023-07-08T04:30:41;8.10;;;6.03;;
18473;SDS011;30265;52.408;13.500;2023-07-08T04:41:04;7.40;;;4.88;;
18473;SDS011;30265;52.408;13.500;2023-07-08T04:51:27;7.47;;;4.80;;
18473;SDS011;30265;52.408;13.500;2023-07-08T05:01:49;8.10;;;4.90;;
18473;SDS011;30265;52.408;13.500;2023-07-08T05:12:14;6.13;;;5.10;;
18473;SDS011;30265;52.408;13.500;2023-07-08T05:22:36;8.63;;;4.97;;
18473;SDS011;30265;52.408;13.500;2023-07-08T05:32:59;9.27;;;4.82;;
18473;SDS011;30265;52.408;13.500;2023-07-08T05:43:20;8.10;;;4.83;;
18473;SDS011;30265;52.408;13.500;2023-07-08T05:53:44;6.22;;;4.45;;
18473;SDS011;30265;52.408;13.500;2023-07-08T06:14:29;6.67;;;4.90;;
18473;SDS011;30265;52.408;13.500;2023-07-08T06:24:51;8.32;;;4.75;;
18473;SDS011;30265;52.408;13.500;2023-07-08T06:35:14;8.93;;;4.90;;
18473;SDS011;30265;52.408;13.500;2023-07-08T06:45:35;5.55;;;4.30;;
18473;SDS011;30265;52.408;13.500;2023-07-08T06:55:59;6.70;;;4.43;;
18473;SDS011;30265;52.408;13.500;2023-07-08T07:06:21;7.75;;;4.50;;
18473;SDS011;30265;52.408;13.500;2023-07-08T07:16:44;9.10;;;4.85;;
18473;SDS011;30265;52.408;13.500;2023-07-08T07:27:26;6.32;;;4.05;;
18473;SDS011;30265;52.408;13.500;2023-07-08T07:37:50;6.50;;;4.05;;
18473;SDS011;30265;52.408;13.500;2023-07-08T07:48:12;5.43;;;3.92;;
18473;SDS011;30265;52.408;13.500;2023-07-08T08:08:56;7.05;;;4.70;;
18473;SDS011;30265;52.408;13.500;2023-07-08T08:19:19;5.43;;;4.15;;
18473;SDS011;30265;52.408;13.500;2023-07-08T08:29:41;6.75;;;4.70;;
18473;SDS011;30265;52.408;13.500;2023-07-08T08:40:07;6.15;;;4.07;;
18473;SDS011;30265;52.408;13.500;2023-07-08T08:50:34;6.80;;;3.42;;
18473;SDS011;30265;52.408;13.500;2023-07-08T09:01:08;5.72;;;3.65;;
18473;SDS011;30265;52.408;13.500;2023-07-08T09:11:39;14.80;;;3.53;;
18473;SDS011;30265;52.408;13.500;2023-07-08T09:22:05;8.27;;;3.03;;
18473;SDS011;30265;52.408;13.500;2023-07-08T09:32:38;4.78;;;3.15;;
18473;SDS011;30265;52.408;13.500;2023-07-08T09:43:02;5.70;;;3.22;;
18473;SDS011;30265;52.408;13.500;2023-07-08T09:53:31;4.97;;;3.42;;
18473;SDS011;30265;52.408;13.500;2023-07-08T10:03:58;4.88;;;2.95;;
18473;SDS011;30265;52.408;13.500;2023-07-08T10:14:25;3.80;;;2.40;;
18473;SDS011;30265;52.408;13.500;2023-07-08T10:25:08;4.35;;;2.55;;
18473;SDS011;30265;52.408;13.500;2023-07-08T10:35:40;5.80;;;2.95;;
18473;SDS011;30265;52.408;13.500;2023-07-08T10:46:16;4.53;;;2.70;;
18473;SDS011;30265;52.408;13.500;2023-07-08T10:56:46;4.18;;;3.20;;
18473;SDS011;30265;52.408;13.500;2023-07-08T11:07:26;4.15;;;3.03;;
18473;SDS011;30265;52.408;13.500;2023-07-08T11:17:55;4.68;;;3.35;;
18473;SDS011;30265;52.408;13.500;2023-07-08T11:38:48;6.13;;;3.25;;
18473;SDS011;30265;52.408;13.500;2023-07-08T11:49:13;7.72;;;2.97;;
18473;SDS011;30265;52.408;13.500;2023-07-08T11:59:37;4.80;;;3.03;;
18473;SDS011;30265;52.408;13.500;2023-07-08T12:10:05;3.88;;;3.10;;
18473;SDS011;30265;52.408;13.500;2023-07-08T12:20:33;5.78;;;3.35;;
18473;SDS011;30265;52.408;13.500;2023-07-08T12:30:58;5.63;;;3.22;;
18473;SDS011;30265;52.408;13.500;2023-07-08T12:41:21;4.35;;;3.13;;
18473;SDS011;30265;52.408;13.500;2023-07-08T12:51:46;4.80;;;3.17;;
18473;SDS011;30265;52.408;13.500;2023-07-08T13:02:09;4.57;;;3.28;;
18473;SDS011;30265;52.408;13.500;2023-07-08T13:12:38;5.22;;;3.58;;
18473;SDS011;30265;52.408;13.500;2023-07-08T13:23:01;5.20;;;3.17;;
18473;SDS011;30265;52.408;13.500;2023-07-08T13:33:28;4.50;;;3.03;;
18473;SDS011;30265;52.408;13.500;2023-07-08T13:43:51;5.50;;;3.40;;
18473;SDS011;30265;52.408;13.500;2023-07-08T13:54:18;5.82;;;3.72;;
18473;SDS011;30265;52.408;13.500;2023-07-08T14:04:45;8.60;;;4.20;;
18473;SDS011;30265;52.408;13.500;2023-07-08T14:15:09;11.13;;;3.85;;
18473;SDS011;30265;52.408;13.500;2023-07-08T14:25:34;4.10;;;3.10;;
18473;SDS011;30265;52.408;13.500;2023-07-08T14:35:58;5.88;;;3.38;;
18473;SDS011;30265;52.408;13.500;2023-07-08T14:46:20;5.07;;;3.42;;
18473;SDS011;30265;52.408;13.500;2023-07-08T14:56:44;5.65;;;3.60;;
18473;SDS011;30265;52.408;13.500;2023-07-08T15:07:07;7.28;;;4.03;;
18473;SDS011;30265;52.408;13.500;2023-07-08T15:17:31;4.97;;;3.40;;
18473;SDS011;30265;52.408;13.500;2023-07-08T15:27:54;7.18;;;3.78;;
18473;SDS011;30265;52.408;13.500;2023-07-08T15:38:24;5.25;;;3.53;;
18473;SDS011;30265;52.408;13.500;2023-07-08T15:48:48;7.07;;;3.42;;
18473;SDS011;30265;52.408;13.500;2023-07-08T15:59:12;8.00;;;4.82;;
18473;SDS011;30265;52.408;13.500;2023-07-08T16:09:37;5.32;;;3.83;;
18473;SDS011;30265;52.408;13.500;2023-07-08T16:20:00;5.55;;;3.88;;
18473;SDS011;30265;52.408;13.500;2023-07-08T16:30:22;6.45;;;3.97;;
18473;SDS011;30265;52.408;13.500;2023-07-08T16:40:46;5.90;;;3.70;;
18473;SDS011;30265;52.408;13.500;2023-07-08T16:51:09;6.10;;;3.47;;
18473;SDS011;30265;52.408;13.500;2023-07-08T17:01:37;6.05;;;3.33;;
18473;SDS011;30265;52.408;13.500;2023-07-08T17:12:00;3.92;;;3.05;;
18473;SDS011;30265;52.408;13.500;2023-07-08T17:22:23;6.22;;;3.97;;
18473;SDS011;30265;52.408;13.500;2023-07-08T17:32:48;10.18;;;5.88;;
18473;SDS011;30265;52.408;13.500;2023-07-08T17:43:16;5.85;;;3.42;;
18473;SDS011;30265;52.408;13.500;2023-07-08T17:53:38;5.80;;;3.92;;
18473;SDS011;30265;52.408;13.500;2023-07-08T18:04:02;6.70;;;4.20;;
18473;SDS011;30265;52.408;13.500;2023-07-08T18:14:24;9.40;;;5.50;;
18473;SDS011;30265;52.408;13.500;2023-07-08T18:24:49;6.10;;;4.13;;
18473;SDS011;30265;52.408;13.500;2023-07-08T18:35:15;8.60;;;4.30;;
18473;SDS011;30265;52.408;13.500;2023-07-08T18:45:40;8.13;;;4.15;;
18473;SDS011;30265;52.408;13.500;2023-07-08T18:56:01;6.10;;;4.22;;
18473;SDS011;30265;52.408;13.500;2023-07-08T19:06:26;6.25;;;4.25;;
18473;SDS011;30265;52.408;13.500;2023-07-08T19:16:55;5.35;;;3.80;;
18473;SDS011;30265;52.408;13.500;2023-07-08T19:27:19;6.57;;;3.50;;
18473;SDS011;30265;52.408;13.500;2023-07-08T19:37:41;9.07;;;4.00;;
18473;SDS011;30265;52.408;13.500;2023-07-08T19:48:07;6.10;;;2.83;;
18473;SDS011;30265;52.408;13.500;2023-07-08T19:58:31;5.72;;;3.42;;
18473;SDS011;30265;52.408;13.500;2023-07-08T20:08:54;6.13;;;3.58;;
18473;SDS011;30265;52.408;13.500;2023-07-08T20:19:19;6.28;;;3.53;;
18473;SDS011;30265;52.408;13.500;2023-07-08T20:29:48;5.30;;;3.38;;
18473;SDS011;30265;52.408;13.500;2023-07-08T20:40:16;6.13;;;3.70;;
18473;SDS011;30265;52.408;13.500;2023-07-08T20:50:41;7.20;;;4.65;;
18473;SDS011;30265;52.408;13.500;2023-07-08T21:01:04;5.60;;;3.23;;
18473;SDS011;30265;52.408;13.500;2023-07-08T21:11:29;4.07;;;3.20;;
18473;SDS011;30265;52.408;13.500;2023-07-08T21:21:53;5.60;;;3.33;;
18473;SDS011;30265;52.408;13.500;2023-07-08T21:32:16;6.15;;;3.50;;
18473;SDS011;30265;52.408;13.500;2023-07-08T21:42:40;6.78;;;3.47;;
18473;SDS011;30265;52.408;13.500;2023-07-08T21:53:03;4.70;;;2.70;;
18473;SDS011;30265;52.408;13.500;2023-07-08T22:03:26;7.47;;;3.23;;
18473;SDS011;30265;52.408;13.500;2023-07-08T22:13:50;6.00;;;3.17;;
18473;SDS011;30265;52.408;13.500;2023-07-08T22:24:14;4.38;;;3.10;;
18473;SDS011;30265;52.408;13.500;2023-07-08T22:34:37;6.88;;;3.03;;
18473;SDS011;30265;52.408;13.500;2023-07-08T22:45:00;9.63;;;3.58;;
18473;SDS011;30265;52.408;13.500;2023-07-08T22:55:26;5.15;;;2.90;;
18473;SDS011;30265;52.408;13.500;2023-07-08T23:05:51;6.90;;;3.40;;
18473;SDS011;30265;52.408;13.500;2023-07-08T23:16:23;4.97;;;3.33;;
18473;SDS011;30265;52.408;13.500;2023-07-08T23:26:49;3.55;;;2.70;;
18473;SDS011;30265;52.408;13.500;2023-07-08T23:37:12;6.07;;;3.08;;
18473;SDS011;30265;52.408;13.500;2023-07-08T23:47:36;5.85;;;3.33;;
18473;SDS011;30265;52.408;13.500;2023-07-08T23:57:59;5.25;;;3.35;;
